Time;durP1;ratioP1;P1;durP2;ratioP2;P2;SDS_P1;SDS_P2;PMS_P1;PMS_P2;Temp;Humidity;BMP_temperature;BMP_pressure;BME280_temperature;BME280_humidity;BME280_pressure;Samples;Min_cycle;Max_cycle;Signal;HPM_P1;HPM_P2
2023/06/14 00:01:02;;;;;;;34.90;24.00;;;;;;;29.91;76.82;100941.22;5055152;28;65804;-41
2023/06/14 00:03:33;;;;;;;32.67;25.40;;;;;;;29.83;76.43;100929.56;5057483;28;70139;-41
2023/06/14 00:06:05;;;;;;;37.42;26.75;;;;;;;29.84;76.92;100933.94;5051911;28;66522;-41
2023/06/14 00:08:36;;;;;;;30.15;26.20;;;;;;;29.94;77.32;100952.41;5053676;28;70145;-40
2023/06/14 00:11:08;;;;;;;41.88;30.65;;;;;;;29.91;77.37;100947.44;5054034;28;65281;-43
2023/06/14 00:13:40;;;;;;;37.40;26.50;;;;;;;29.96;77.53;100952.22;5037721;28;70613;-42
2023/06/14 00:16:12;;;;;;;37.42;26.13;;;;;;;29.96;77.60;100949.53;5051901;28;66628;-40
2023/06/14 00:18:43;;;;;;;37.17;26.17;;;;;;;30.00;78.31;100953.44;5058771;28;70138;-42
2023/06/14 00:21:14;;;;;;;36.38;29.15;;;;;;;29.98;78.31;100942.84;5051233;28;66466;-49
2023/06/14 00:23:46;;;;;;;53.00;30.88;;;;;;;30.04;78.22;100962.81;5051837;28;70037;-42
2023/06/14 00:26:19;;;;;;;50.47;32.90;;;;;;;30.04;78.34;100965.50;5056512;28;65732;-45
2023/06/14 00:28:50;;;;;;;44.65;31.25;;;;;;;29.90;78.38;100939.56;5054729;28;70632;-41
2023/06/14 00:31:22;;;;;;;45.50;28.43;;;;;;;29.95;78.33;100947.84;5051420;28;66772;-43
2023/06/14 00:33:55;;;;;;;34.88;26.00;;;;;;;30.04;77.68;100958.22;5033983;28;70733;-42
2023/06/14 00:36:27;;;;;;;23.50;21.23;;;;;;;30.09;74.45;100956.75;5052962;28;66710;-43
2023/06/14 00:38:58;;;;;;;22.52;20.17;;;;;;;30.15;74.02;100964.84;5051829;28;69666;-40
2023/06/14 00:41:30;;;;;;;21.80;19.50;;;;;;;30.19;73.11;100966.06;5058965;28;65685;-41
2023/06/14 00:44:01;;;;;;;20.27;18.27;;;;;;;30.09;73.33;100946.78;5055398;28;69361;-43
2023/06/14 00:46:32;;;;;;;19.40;17.80;;;;;;;30.27;72.50;100962.34;5041026;28;66344;-41
2023/06/14 00:49:04;;;;;;;19.90;17.98;;;;;;;30.28;72.00;100959.44;5049616;28;69905;-41
2023/06/14 00:51:37;;;;;;;19.42;17.63;;;;;;;30.31;72.12;100949.19;5058601;28;66346;-42
2023/06/14 00:54:08;;;;;;;20.42;17.58;;;;;;;30.25;71.63;100949.00;5049188;28;70446;-41
2023/06/14 00:56:40;;;;;;;19.02;17.13;;;;;;;30.22;71.44;100935.91;5054684;28;66308;-42
2023/06/14 00:59:15;;;;;;;16.98;15.32;;;;;;;30.25;71.58;100927.38;5024454;28;70616;-43
2023/06/14 01:01:48;;;;;;;17.05;15.45;;;;;;;30.44;71.38;100951.84;5060667;28;66705;-40
2023/06/14 01:04:19;;;;;;;16.98;15.50;;;;;;;30.40;70.89;100945.22;5037502;28;71108;-41
2023/06/14 01:07:29;;;;;;;17.20;15.70;;;;;;;30.37;71.70;100951.03;5051738;28;66560;-45
2023/06/14 01:10:09;;;;;;;15.68;14.38;;;;;;;30.50;70.54;100945.56;5056349;28;69083;-41
2023/06/14 01:12:59;;;;;;;15.25;14.07;;;;;;;29.73;70.64;100833.75;5053245;28;65853;-41
2023/06/14 01:15:32;;;;;;;16.45;14.98;;;;;;;30.29;70.07;100911.56;5041572;28;69971;-42
2023/06/14 01:18:04;;;;;;;15.15;13.73;;;;;;;30.44;70.07;100930.19;5054306;28;66751;-42
2023/06/14 01:20:39;;;;;;;15.05;13.95;;;;;;;30.60;70.32;100954.06;5056688;28;70414;-42
2023/06/14 01:23:12;;;;;;;15.50;14.10;;;;;;;30.59;70.08;100941.59;5056186;28;66924;-40
2023/06/14 01:25:44;;;;;;;15.35;14.20;;;;;;;30.64;69.81;100940.91;5056601;28;70189;-43
2023/06/14 01:28:16;;;;;;;14.57;13.40;;;;;;;30.67;69.39;100941.34;5038682;28;65987;-41
2023/06/14 01:30:53;;;;;;;14.88;13.60;;;;;;;30.29;69.90;100860.13;5038425;28;70387;-41
2023/06/14 01:33:28;;;;;;;15.98;14.07;;;;;;;30.23;69.28;100852.88;5052677;28;65805;-44
2023/06/14 01:36:02;;;;;;;14.00;12.75;;;;;;;30.20;69.22;100848.72;5059593;28;69767;-43
2023/06/14 01:38:33;;;;;;;13.35;12.23;;;;;;;30.62;69.42;100911.38;5058464;28;66878;-42
2023/06/14 01:41:06;;;;;;;14.13;12.95;;;;;;;30.73;69.29;100937.75;5039524;28;70238;-40
2023/06/14 01:43:38;;;;;;;12.63;11.60;;;;;;;30.80;69.25;100936.91;5040532;28;65540;-41
2023/06/14 01:46:11;;;;;;;14.30;13.05;;;;;;;30.82;68.77;100943.75;5059630;28;69531;-41
2023/06/14 01:48:44;;;;;;;13.13;12.13;;;;;;;30.75;68.79;100931.28;5040743;28;66636;-42
2023/06/14 01:51:15;;;;;;;12.82;11.93;;;;;;;30.85;68.82;100939.78;5061351;28;69490;-42
2023/06/14 01:53:48;;;;;;;11.95;10.98;;;;;;;30.85;68.44;100934.38;5045626;28;66616;-41
2023/06/14 01:56:19;;;;;;;12.38;11.38;;;;;;;30.78;68.87;100922.72;5058387;28;70445;-41
2023/06/14 01:58:51;;;;;;;12.75;11.77;;;;;;;30.90;68.53;100948.91;5036280;28;66504;-41
2023/06/14 02:01:23;;;;;;;11.82;10.90;;;;;;;30.56;68.66;100882.44;5038586;28;69796;-43
2023/06/14 02:03:54;;;;;;;12.27;11.15;;;;;;;30.84;68.28;100919.16;5047925;28;65950;-41
2023/06/14 02:06:28;;;;;;;12.63;11.67;;;;;;;30.99;68.52;100949.47;5042889;28;68906;-41
2023/06/14 02:08:59;;;;;;;11.07;10.45;;;;;;;30.99;67.87;100938.63;5057754;28;66686;-40
2023/06/14 02:11:31;;;;;;;10.85;10.15;;;;;;;31.02;68.33;100938.19;5059047;28;69798;-42
2023/06/14 02:14:02;;;;;;;10.98;10.27;;;;;;;31.03;67.70;100929.00;5055012;28;65288;-41
2023/06/14 02:16:35;;;;;;;11.60;10.75;;;;;;;31.06;67.85;100933.16;5042875;28;69404;-42
2023/06/14 02:19:07;;;;;;;10.98;10.18;;;;;;;31.11;67.90;100942.28;5056934;28;65974;-40
2023/06/14 02:21:38;;;;;;;11.23;10.00;;;;;;;31.10;67.84;100934.41;5062702;28;70040;-42
2023/06/14 02:24:10;;;;;;;10.80;10.10;;;;;;;31.04;67.67;100921.72;5057703;28;65604;-42
2023/06/14 02:26:41;;;;;;;10.02;9.43;;;;;;;31.17;67.62;100946.00;5058353;28;71202;-41
2023/06/14 02:29:16;;;;;;;10.77;10.07;;;;;;;31.19;67.36;100937.66;5057456;28;66320;-41
2023/06/14 02:31:48;;;;;;;10.25;9.40;;;;;;;31.25;67.47;100942.19;5055040;28;70454;-41
2023/06/14 02:34:22;;;;;;;9.95;9.35;;;;;;;31.26;66.97;100935.69;5038205;28;66298;-41
2023/06/14 02:36:55;;;;;;;9.35;8.68;;;;;;;31.30;67.15;100935.03;5059994;28;69942;-43
2023/06/14 02:39:28;;;;;;;9.48;8.80;;;;;;;31.34;66.76;100935.41;5035804;28;65955;-41
2023/06/14 02:41:59;;;;;;;8.55;8.05;;;;;;;31.01;67.07;100876.94;5058974;28;69464;-40
2023/06/14 02:44:32;;;;;;;9.27;8.48;;;;;;;31.30;66.90;100917.97;5040679;28;66050;-44
2023/06/14 02:47:04;;;;;;;8.50;7.85;;;;;;;31.05;66.45;100872.72;5041564;28;69547;-38
2023/06/14 02:49:35;;;;;;;7.90;7.32;;;;;;;31.47;66.78;100932.63;5055125;28;66738;-41
2023/06/14 02:52:08;;;;;;;8.18;7.57;;;;;;;31.45;66.77;100932.00;5063014;28;69542;-41
2023/06/14 02:54:41;;;;;;;7.50;7.05;;;;;;;31.53;66.68;100929.00;5056051;28;66365;-40
2023/06/14 02:57:13;;;;;;;7.72;7.32;;;;;;;31.55;66.71;100932.34;5060629;28;70787;-41
2023/06/14 02:59:44;;;;;;;;;;;;;;;31.32;67.23;100932.94;5047253;28;66034;-41
2023/06/14 03:02:15;;;;;;;8.18;7.68;;;;;;;31.60;66.49;100921.66;5040247;28;70265;-43
2023/06/14 03:04:47;;;;;;;7.63;7.07;;;;;;;31.61;66.17;100915.16;5059543;28;65567;-42
2023/06/14 03:07:23;;;;;;;8.07;7.53;;;;;;;31.69;66.36;100915.94;5060536;28;69142;-43
2023/06/14 03:09:55;;;;;;;7.65;7.22;;;;;;;31.72;66.28;100916.31;5051983;28;66380;-42
2023/06/14 03:12:27;;;;;;;7.90;7.40;;;;;;;31.72;66.07;100893.78;5039617;28;69674;-41
2023/06/14 03:15:01;;;;;;;10.48;7.40;;;;;;;31.76;66.16;100905.84;5042680;28;66040;-40
2023/06/14 03:17:38;;;;;;;7.38;6.78;;;;;;;31.76;66.07;100900.41;5061183;28;70389;-42
2023/06/14 03:20:10;;;;;;;7.70;7.00;;;;;;;31.82;66.27;100904.94;5059167;28;66401;-39
2023/06/14 03:22:45;;;;;;;6.80;6.50;;;;;;;31.84;65.99;100916.38;5045387;28;70203;-42
2023/06/14 03:25:18;;;;;;;7.57;6.85;;;;;;;31.86;65.80;100917.00;5037602;28;66495;-48
2023/06/14 03:27:52;;;;;;;7.43;7.00;;;;;;;31.90;65.58;100901.94;5059509;28;70502;-42
2023/06/14 03:30:24;;;;;;;7.80;7.30;;;;;;;31.76;65.90;100881.41;5056962;28;65918;-41
2023/06/14 03:32:55;;;;;;;7.57;7.10;;;;;;;31.88;65.65;100892.38;5040727;28;69550;-39
2023/06/14 03:35:29;;;;;;;6.80;6.40;;;;;;;31.93;65.50;100912.38;5042155;28;65448;-40
2023/06/14 03:38:00;;;;;;;;;;;;;;;31.64;66.33;100899.50;5057229;28;69988;-41
2023/06/14 03:40:32;;;;;;;7.50;7.00;;;;;;;31.86;65.50;100889.03;5040444;28;67450;-42
2023/06/14 03:43:05;;;;;;;6.80;6.40;;;;;;;31.94;65.31;100897.72;5036630;28;70030;-41
2023/06/14 03:45:37;;;;;;;7.15;6.68;;;;;;;31.95;65.30;100901.28;5056777;28;65824;-40
2023/06/14 03:48:10;;;;;;;6.22;5.82;;;;;;;31.88;65.22;100890.47;5035111;28;70152;-40
2023/06/14 03:50:42;;;;;;;7.65;6.22;;;;;;;31.87;65.18;100880.66;5041327;28;66129;-43
2023/06/14 03:53:14;;;;;;;6.82;6.40;;;;;;;31.93;64.98;100887.94;5055539;28;70146;-41
2023/06/14 03:55:52;;;;;;;6.35;5.95;;;;;;;32.02;65.08;100900.13;5040102;28;65291;-40
2023/06/14 03:58:33;;;;;;;6.75;6.25;;;;;;;32.00;65.00;100890.56;5038332;28;69635;-41
2023/06/14 04:01:06;;;;;;;;;;;;;;;31.74;65.85;100897.13;5037568;28;66124;-42
2023/06/14 04:03:37;;;;;;;;;;;;;;;31.71;65.91;100895.69;5026259;28;69032;-43
2023/06/14 04:06:08;;;;;;;6.45;5.85;;;;;;;32.01;65.10;100893.06;5058311;28;66548;-41
2023/06/14 04:08:41;;;;;;;6.23;5.83;;;;;;;32.05;64.94;100899.69;5058943;28;70279;-42
2023/06/14 04:11:12;;;;;;;6.03;5.72;;;;;;;31.72;64.79;100828.72;5040059;28;65715;-42
2023/06/14 04:13:44;;;;;;;6.00;5.70;;;;;;;32.12;64.73;100883.31;5058946;28;69282;-41
2023/06/14 04:16:15;;;;;;;6.00;5.60;;;;;;;32.14;64.75;100874.94;5031955;28;64934;-42
2023/06/14 04:18:48;;;;;;;5.75;5.43;;;;;;;32.12;64.66;100883.31;5054966;28;69462;-41
2023/06/14 04:21:20;;;;;;;5.88;5.47;;;;;;;32.19;64.47;100884.06;5041556;28;66673;-43
2023/06/14 04:23:55;;;;;;;6.05;5.57;;;;;;;31.94;64.33;100838.06;5059770;28;69734;-43
2023/06/14 04:26:29;;;;;;;5.85;5.43;;;;;;;32.11;64.46;100865.38;5052418;28;66470;-43
2023/06/14 04:29:01;;;;;;;5.60;5.20;;;;;;;32.24;64.27;100886.09;5055936;28;69092;-41
2023/06/14 04:31:39;;;;;;;5.93;5.40;;;;;;;32.28;64.25;100888.09;5040732;28;65817;-42
2023/06/14 04:34:16;;;;;;;5.53;5.13;;;;;;;32.27;63.98;100864.75;5039795;28;70217;-41
2023/06/14 04:36:56;;;;;;;5.35;5.05;;;;;;;32.32;64.32;100877.63;5036551;28;66399;-42
2023/06/14 04:39:33;;;;;;;5.28;4.97;;;;;;;32.36;63.92;100869.84;5038443;28;69152;-43
2023/06/14 04:42:07;;;;;;;5.70;5.13;;;;;;;32.38;63.81;100876.69;5039681;28;65733;-43
2023/06/14 04:44:39;;;;;;;5.18;4.88;;;;;;;32.35;63.71;100869.03;5040355;28;70373;-43
2023/06/14 04:47:12;;;;;;;5.15;4.57;;;;;;;32.29;63.79;100845.53;5037419;28;66283;-42
2023/06/14 04:49:45;;;;;;;4.57;4.28;;;;;;;32.44;63.63;100862.19;5037307;28;70533;-43
2023/06/14 04:52:17;;;;;;;4.70;4.40;;;;;;;32.39;63.58;100840.34;5056488;28;66688;-43
2023/06/14 04:54:48;;;;;;;;;;;;;;;32.20;63.81;100852.31;5039367;28;70480;-43
2023/06/14 04:57:22;;;;;;;5.18;4.78;;;;;;;32.46;63.56;100832.97;5037065;28;66608;-43
2023/06/14 05:00:00;;;;;;;4.82;4.53;;;;;;;32.32;63.67;100811.63;5041215;28;70355;-43
2023/06/14 05:02:33;;;;;;;5.20;4.90;;;;;;;32.53;63.07;100835.56;5006385;28;64408;-44
2023/06/14 05:05:07;;;;;;;4.80;4.40;;;;;;;32.54;63.58;100833.69;5051111;28;69224;-42
2023/06/14 05:07:39;;;;;;;5.00;4.70;;;;;;;32.12;63.21;100754.94;5043185;28;66440;-43
2023/06/14 05:10:11;;;;;;;4.40;4.10;;;;;;;32.60;63.09;100824.63;5041101;28;69358;-42
2023/06/14 05:12:43;;;;;;;4.82;4.53;;;;;;;32.62;63.03;100819.75;5049086;28;66542;-42
2023/06/14 05:15:15;;;;;;;;;;;;;;;32.35;63.45;100806.59;5043668;28;70112;-41
2023/06/14 05:17:54;;;;;;;4.97;4.33;;;;;;;32.63;63.15;100819.53;5058010;28;65708;-43
2023/06/14 05:20:26;;;;;;;4.57;4.13;;;;;;;32.53;63.22;100785.88;5060879;28;69250;-41
2023/06/14 05:22:57;;;;;;;4.80;4.50;;;;;;;32.62;63.20;100800.75;5059169;28;66280;-43
2023/06/14 05:25:29;;;;;;;4.75;4.45;;;;;;;32.69;62.93;100798.75;5061412;28;69753;-43
2023/06/14 05:28:00;;;;;;;5.40;4.47;;;;;;;32.71;62.95;100786.59;5042267;28;66118;-42
2023/06/14 05:30:33;;;;;;;4.72;4.32;;;;;;;32.60;62.86;100765.69;5038442;28;70888;-40
2023/06/14 05:33:04;;;;;;;4.20;4.00;;;;;;;32.67;62.74;100768.28;5058000;28;65953;-43
2023/06/14 05:35:36;;;;;;;4.88;4.57;;;;;;;32.78;62.59;100778.31;5058484;28;70088;-40
2023/06/14 05:38:07;;;;;;;4.45;4.07;;;;;;;32.69;62.71;100755.31;5056742;28;65215;-42
2023/06/14 05:40:39;;;;;;;4.35;4.05;;;;;;;32.84;62.64;100777.38;5058806;28;70759;-43
2023/06/14 05:43:10;;;;;;;4.55;4.25;;;;;;;32.86;62.57;100772.53;5058307;28;66571;-43
2023/06/14 05:45:42;;;;;;;4.78;4.47;;;;;;;32.79;62.34;100752.84;5056270;28;70353;-47
2023/06/14 05:48:13;;;;;;;5.40;4.20;;;;;;;32.80;62.42;100757.19;5059069;28;65552;-42
2023/06/14 05:50:44;;;;;;;4.30;4.03;;;;;;;32.92;62.53;100774.31;5056017;28;70077;-41
2023/06/14 05:53:15;;;;;;;4.72;4.45;;;;;;;32.92;62.46;100774.31;5059057;28;66647;-44
2023/06/14 05:55:47;;;;;;;4.45;4.18;;;;;;;32.87;62.49;100751.63;5058109;28;70223;-43
2023/06/14 05:58:18;;;;;;;;;;;;;;;32.71;62.79;100766.78;5061312;28;66750;-42
2023/06/14 06:00:49;;;;;;;5.82;4.13;;;;;;;32.98;62.50;100755.41;5063029;28;70339;-41
2023/06/14 06:03:20;;;;;;;4.10;3.90;;;;;;;33.00;62.28;100750.59;5059096;28;66106;-42
2023/06/14 06:05:52;;;;;;;4.72;4.43;;;;;;;33.05;62.43;100756.16;5060112;28;70338;-44
2023/06/14 06:08:23;;;;;;;4.38;4.07;;;;;;;33.05;62.13;100756.16;5057428;28;65909;-50
2023/06/14 06:10:54;;;;;;;4.97;4.53;;;;;;;32.63;62.13;100691.06;5061573;28;70006;-43
2023/06/14 06:13:26;;;;;;;6.72;4.10;;;;;;;33.08;62.00;100761.09;5061308;28;66016;-42
2023/06/14 06:15:57;;;;;;;4.55;4.25;;;;;;;33.10;62.04;100753.56;5060910;28;69856;-42
2023/06/14 06:18:28;;;;;;;4.20;4.00;;;;;;;33.12;62.21;100740.53;5055628;28;65481;-43
2023/06/14 06:21:00;;;;;;;5.20;4.90;;;;;;;33.15;61.97;100737.34;5061898;28;69291;-42
2023/06/14 06:23:31;;;;;;;;;;;;;;;32.85;62.39;100741.03;5054564;28;65813;-42
2023/06/14 06:26:03;;;;;;;4.50;4.20;;;;;;;33.15;61.94;100724.59;5056965;28;69804;-42
2023/06/14 06:28:34;;;;;;;4.38;4.07;;;;;;;33.15;62.21;100735.47;5062568;28;65456;-43
2023/06/14 06:31:06;;;;;;;5.30;4.80;;;;;;;33.19;62.04;100719.50;5058665;28;70419;-43
2023/06/14 06:33:39;;;;;;;4.20;3.95;;;;;;;33.17;61.82;100699.88;5046529;28;66116;-43
2023/06/14 06:36:10;;;;;;;4.80;4.40;;;;;;;33.26;61.74;100692.97;5061405;28;70476;-42
2023/06/14 06:38:42;;;;;;;4.68;4.38;;;;;;;33.23;61.58;100698.91;5058804;28;66822;-41
2023/06/14 06:41:14;;;;;;;5.10;4.72;;;;;;;33.28;61.43;100690.84;5050709;28;70305;-42
2023/06/14 06:43:45;;;;;;;4.53;4.22;;;;;;;32.86;61.54;100622.31;5039112;28;66087;-41
2023/06/14 06:46:19;;;;;;;5.28;4.97;;;;;;;33.34;61.40;100681.72;5042592;28;69318;-44
2023/06/14 06:48:50;;;;;;;4.75;4.35;;;;;;;33.22;61.57;100659.22;5060828;28;65130;-41
2023/06/14 06:51:21;;;;;;;4.97;4.57;;;;;;;33.35;61.45;100669.81;5061242;28;69581;-41
2023/06/14 06:53:55;;;;;;;5.10;4.35;;;;;;;33.38;61.37;100674.75;5061166;28;65943;-42
2023/06/14 06:56:28;;;;;;;5.30;5.00;;;;;;;33.41;61.59;100678.06;5051804;28;69820;-43
2023/06/14 06:59:00;;;;;;;4.68;4.38;;;;;;;33.42;61.25;100679.72;5061749;28;66815;-42
2023/06/14 07:01:33;;;;;;;4.65;4.38;;;;;;;33.41;61.54;100661.75;5055418;28;70196;-44
2023/06/14 07:04:04;;;;;;;5.53;4.50;;;;;;;33.41;61.56;100656.31;5030308;28;66132;-44
2023/06/14 07:06:37;;;;;;;4.90;4.50;;;;;;;33.43;61.69;100651.44;5060363;28;69316;-41
2023/06/14 07:09:12;;;;;;;4.88;4.50;;;;;;;33.37;61.26;100632.31;5059835;28;65392;-42
2023/06/14 07:11:45;;;;;;;4.50;4.30;;;;;;;33.47;61.05;100633.59;5059892;28;70039;-43
2023/06/14 07:14:16;;;;;;;4.93;4.57;;;;;;;33.49;61.39;100634.13;5047568;28;66600;-44
2023/06/14 07:16:49;;;;;;;4.82;4.53;;;;;;;33.39;61.78;100615.75;5058611;28;69050;-40
2023/06/14 07:19:20;;;;;;;4.88;4.57;;;;;;;33.35;61.58;100607.28;5060652;28;66324;-42
2023/06/14 07:21:52;;;;;;;4.75;4.35;;;;;;;33.54;61.40;100634.28;5054777;28;69300;-41
2023/06/14 07:24:24;;;;;;;4.90;4.57;;;;;;;33.55;61.40;100635.94;5044932;28;66456;-40
2023/06/14 07:26:56;;;;;;;;;;;;;;;33.28;62.00;100633.78;5039991;28;70413;-43
2023/06/14 07:29:27;;;;;;;4.75;4.45;;;;;;;33.53;61.30;100624.47;5057480;28;65311;-41
2023/06/14 07:31:58;;;;;;;4.95;4.55;;;;;;;33.57;61.68;100622.91;5060218;28;69597;-43
2023/06/14 07:34:29;;;;;;;4.60;4.30;;;;;;;33.57;61.62;100617.47;5057717;28;66004;-44
2023/06/14 07:37:01;;;;;;;5.00;4.60;;;;;;;33.54;61.45;100617.94;5055412;28;69994;-42
2023/06/14 07:39:32;;;;;;;5.57;5.00;;;;;;;33.56;61.32;100610.38;5055936;28;65848;-43
2023/06/14 07:42:03;;;;;;;4.38;4.18;;;;;;;33.62;61.29;100623.00;5057516;28;69970;-44
2023/06/14 07:44:36;;;;;;;5.15;4.75;;;;;;;33.65;61.22;100625.22;5058252;28;66551;-41
2023/06/14 07:47:07;;;;;;;5.10;4.20;;;;;;;33.64;61.29;100618.16;5063345;28;69193;-44
2023/06/14 07:49:38;;;;;;;;;;;;;;;33.37;61.83;100613.28;5060634;28;66311;-43
2023/06/14 07:52:11;;;;;;;5.00;4.60;;;;;;;33.65;61.23;100613.53;5059780;28;70040;-41
2023/06/14 07:54:42;;;;;;;5.30;4.88;;;;;;;33.69;61.26;100604.63;5058365;28;66620;-42
2023/06/14 07:57:14;;;;;;;5.65;5.30;;;;;;;33.70;61.20;100608.19;5057682;28;69692;-41
2023/06/14 07:59:46;;;;;;;11.15;5.63;;;;;;;33.66;61.51;100596.97;5059133;28;66423;-42
2023/06/14 08:02:18;;;;;;;5.60;5.30;;;;;;;33.25;61.28;100527.44;5057187;28;70076;-44
2023/06/14 08:04:49;;;;;;;5.10;4.70;;;;;;;33.73;61.36;100611.22;5057545;28;65854;-41
2023/06/14 08:07:21;;;;;;;5.03;4.72;;;;;;;33.64;61.44;100596.38;5039793;28;69814;-42
2023/06/14 08:09:52;;;;;;;5.35;5.03;;;;;;;33.74;61.47;100617.47;5062205;28;66198;-43
2023/06/14 08:12:24;;;;;;;5.68;5.38;;;;;;;33.41;61.15;100555.72;5059596;27;70093;-42
2023/06/14 08:14:55;;;;;;;5.43;5.07;;;;;;;33.77;61.43;100614.28;5059887;28;66489;-42
2023/06/14 08:17:46;;;;;;;6.05;5.65;;;;;;;33.77;60.91;100606.94;5060681;28;69619;-41
2023/06/14 08:20:17;;;;;;;5.97;5.57;;;;;;;33.78;61.52;100605.06;5059264;28;66752;-41
2023/06/14 08:22:49;;;;;;;5.40;5.10;;;;;;;33.74;61.17;100602.00;5058269;28;71080;-40
2023/06/14 08:25:20;;;;;;;;;;;;;;;33.53;61.77;100600.81;5059587;28;66313;-41
2023/06/14 08:27:51;;;;;;;6.90;4.95;;;;;;;33.81;60.93;100608.09;5060847;28;69998;-42
2023/06/14 08:30:23;;;;;;;5.97;5.57;;;;;;;33.81;61.35;100602.66;5057680;28;66662;-43
2023/06/14 08:32:56;;;;;;;5.63;5.22;;;;;;;33.85;61.13;100599.44;5057612;28;70014;-45
2023/06/14 08:35:44;;;;;;;5.53;5.13;;;;;;;33.83;60.99;100598.88;5057560;28;66168;-44
2023/06/14 08:38:15;;;;;;;;;;;;;;;33.56;61.57;100610.38;5060788;28;70760;-43
2023/06/14 08:40:51;;;;;;;4.97;4.68;;;;;;;33.33;60.89;100532.47;5055999;28;65601;-43
2023/06/14 08:43:23;;;;;;;5.82;5.45;;;;;;;33.74;60.90;100593.84;5057794;28;70103;-43
2023/06/14 08:46:00;;;;;;;5.55;5.07;;;;;;;33.84;60.50;100612.22;5061703;28;66109;-44
2023/06/14 08:48:33;;;;;;;5.10;4.70;;;;;;;33.86;61.04;100603.81;5062333;28;70685;-44
2023/06/14 08:51:06;;;;;;;5.32;5.03;;;;;;;33.88;60.95;100613.38;5063828;28;66022;-41
2023/06/14 08:53:41;;;;;;;5.72;5.43;;;;;;;33.30;60.92;100520.19;5061534;28;70420;-45
2023/06/14 08:56:13;;;;;;;5.50;4.97;;;;;;;33.90;60.54;100615.84;5066994;28;66300;-43
2023/06/14 08:58:45;;;;;;;;;;;;;;;33.61;60.96;100621.34;5060934;28;69219;-42
2023/06/14 09:01:17;;;;;;;6.28;5.88;;;;;;;33.86;60.76;100615.53;5060305;28;66787;-43
2023/06/14 09:03:50;;;;;;;5.75;5.35;;;;;;;33.75;60.78;100590.03;5059846;28;70506;-40
2023/06/14 09:06:22;;;;;;;5.40;5.00;;;;;;;33.92;60.58;100613.72;5061529;28;66255;-41
2023/06/14 09:08:57;;;;;;;6.10;5.57;;;;;;;33.46;59.99;100534.03;5061505;28;70588;-42
2023/06/14 09:11:28;;;;;;;5.93;5.53;;;;;;;33.92;60.23;100591.94;5062171;28;66250;-44
2023/06/14 09:14:00;;;;;;;5.47;5.13;;;;;;;33.70;60.29;100562.75;5054849;28;69438;-44
2023/06/14 09:16:33;;;;;;;5.45;5.15;;;;;;;33.43;60.25;100501.88;5061748;28;66798;-44
2023/06/14 09:19:05;;;;;;;5.50;5.20;;;;;;;33.94;60.12;100584.34;5061204;28;70080;-42
2023/06/14 09:21:38;;;;;;;;;;;;;;;33.64;60.44;100571.91;5058238;28;65668;-43
2023/06/14 09:24:14;;;;;;;5.50;5.20;;;;;;;33.31;59.58;100488.38;5061381;28;70631;-42
2023/06/14 09:26:48;;;;;;;4.90;4.60;;;;;;;33.93;59.83;100572.63;5060491;28;65487;-41
2023/06/14 09:29:20;;;;;;;5.43;5.03;;;;;;;33.94;60.00;100568.03;5056538;28;70612;-41
2023/06/14 09:31:51;;;;;;;;;;;;;;;33.64;60.16;100569.19;5054758;28;65397;-42
2023/06/14 09:34:23;;;;;;;5.20;4.80;;;;;;;33.88;59.99;100563.56;5049963;28;69822;-42
2023/06/14 09:36:55;;;;;;;4.68;4.38;;;;;;;33.93;59.63;100571.81;5060915;28;66098;-44
2023/06/14 09:39:27;;;;;;;4.95;4.55;;;;;;;33.92;59.64;100571.00;5053981;28;69760;-41
2023/06/14 09:41:58;;;;;;;5.30;5.00;;;;;;;33.94;59.29;100571.56;5056412;28;66586;-41
2023/06/14 09:44:30;;;;;;;5.38;5.03;;;;;;;33.94;59.59;100573.47;5057912;28;70594;-40
2023/06/14 09:47:03;;;;;;;;;;;;;;;33.65;59.84;100587.13;5042690;28;64460;-41
2023/06/14 09:49:34;;;;;;;5.28;4.97;;;;;;;33.75;59.22;100565.56;5059093;28;69545;-42
2023/06/14 09:52:05;;;;;;;;;;;;;;;33.64;59.85;100590.94;5059700;28;66924;-44
2023/06/14 09:54:51;;;;;;;5.45;5.15;;;;;;;33.74;59.38;100563.06;5056615;28;70549;-42
2023/06/14 09:57:25;;;;;;;5.50;5.07;;;;;;;33.91;59.76;100579.41;5055376;28;66358;-49
2023/06/14 10:00:05;;;;;;;5.20;4.90;;;;;;;33.84;59.15;100563.25;5056418;28;70263;-44
2023/06/14 10:02:47;;;;;;;5.47;5.07;;;;;;;32.89;59.08;100418.88;5056849;28;65683;-42
2023/06/14 10:05:20;;;;;;;5.20;4.90;;;;;;;33.46;59.23;100528.59;5056894;28;70538;-44
2023/06/14 10:08:00;;;;;;;5.10;4.80;;;;;;;33.81;58.63;100580.88;5056058;28;65503;-44
2023/06/14 10:10:32;;;;;;;5.03;4.72;;;;;;;33.95;59.38;100603.16;5030890;28;70517;-44
2023/06/14 10:13:03;;;;;;;;;;;;;;;33.65;59.84;100614.34;5055052;28;66119;-42
2023/06/14 10:15:46;;;;;;;5.50;5.10;;;;;;;32.88;59.00;100447.13;5057896;28;70259;-42
2023/06/14 10:18:34;;;;;;;5.55;5.15;;;;;;;33.94;59.03;100627.91;5055923;28;66049;-44
2023/06/14 10:21:23;;;;;;;7.35;5.57;;;;;;;33.89;59.04;100633.25;5059415;28;70373;-42
2023/06/14 10:23:59;;;;;;;6.47;5.10;;;;;;;33.91;59.37;100636.56;5055026;28;66372;-43
2023/06/14 10:26:30;;;;;;;5.22;4.72;;;;;;;33.86;59.01;100633.75;5059294;28;69250;-41
2023/06/14 10:29:09;;;;;;;5.15;4.85;;;;;;;33.83;59.13;100626.09;5058763;28;66763;-42
2023/06/14 10:31:42;;;;;;;5.90;5.45;;;;;;;33.51;59.31;100572.19;5058825;28;69951;-41
2023/06/14 10:34:25;;;;;;;7.28;5.35;;;;;;;33.91;58.82;100656.44;5049151;28;66644;-40
2023/06/14 10:37:13;;;;;;;5.32;5.03;;;;;;;33.30;59.08;100557.44;5060310;28;70780;-42
2023/06/14 10:39:46;;;;;;;5.55;5.15;;;;;;;33.93;59.27;100643.38;5051354;28;66542;-41
2023/06/14 10:42:18;;;;;;;5.15;4.85;;;;;;;33.95;59.30;100640.41;5053443;28;69914;-42
2023/06/14 10:44:56;;;;;;;5.65;5.15;;;;;;;32.90;59.06;100488.47;5053566;28;66416;-43
2023/06/14 10:47:30;;;;;;;5.40;5.10;;;;;;;33.92;59.15;100671.66;5058970;28;69246;-43
2023/06/14 10:50:10;;;;;;;5.63;5.15;;;;;;;33.03;59.31;100532.72;5039072;28;66089;-42
2023/06/14 10:52:44;;;;;;;5.63;5.22;;;;;;;33.37;59.32;100577.94;5061753;28;70151;-43
2023/06/14 10:55:21;;;;;;;5.57;5.07;;;;;;;33.92;59.44;100662.69;5053065;28;66554;-42
2023/06/14 10:57:58;;;;;;;5.82;5.43;;;;;;;33.26;58.91;100561.69;5056354;28;70725;-41
2023/06/14 11:00:32;;;;;;;5.78;5.38;;;;;;;33.92;59.35;100668.13;5061861;28;66388;-42
2023/06/14 11:03:22;;;;;;;5.70;5.20;;;;;;;33.86;59.05;100672.66;5055554;28;70335;-43
2023/06/14 11:05:58;;;;;;;5.18;4.88;;;;;;;33.76;59.24;100667.03;5057253;28;66534;-44
2023/06/14 11:09:06;;;;;;;5.80;5.38;;;;;;;33.78;59.07;100679.31;5058568;28;69670;-40
2023/06/14 11:11:42;;;;;;;5.88;5.47;;;;;;;33.63;58.97;100649.13;5035161;28;66126;-43
2023/06/14 11:14:13;;;;;;;5.80;5.40;;;;;;;33.71;59.23;100661.50;5056405;28;70431;-41
2023/06/14 11:16:49;;;;;;;6.10;5.70;;;;;;;33.81;59.20;100695.16;5038978;28;67126;-42
2023/06/14 11:19:22;;;;;;;5.88;5.47;;;;;;;33.84;59.37;100682.13;5061093;28;70006;-44
2023/06/14 11:21:53;;;;;;;5.40;5.10;;;;;;;33.85;59.43;100678.34;5062119;28;65680;-42
2023/06/14 11:24:25;;;;;;;5.68;5.38;;;;;;;33.84;59.90;100685.69;5059981;28;69219;-43
2023/06/14 11:26:57;;;;;;;;;;;;;;;33.56;60.64;100684.63;5061418;28;66220;-42
2023/06/14 11:29:30;;;;;;;6.43;5.43;;;;;;;33.79;60.29;100674.69;5059297;28;70754;-42
2023/06/14 11:32:02;;;;;;;6.10;5.57;;;;;;;33.77;60.17;100677.69;5052020;28;66162;-44
2023/06/14 11:34:34;;;;;;;6.13;5.72;;;;;;;33.86;60.82;100696.34;5041797;28;70569;-43
2023/06/14 11:37:06;;;;;;;6.35;5.95;;;;;;;33.85;61.12;100694.66;5060380;28;66687;-45
2023/06/14 11:39:43;;;;;;;6.43;5.55;;;;;;;33.75;61.43;100679.81;5052687;28;69846;-45
2023/06/14 11:42:18;;;;;;;7.32;6.63;;;;;;;33.86;61.92;100691.72;5065801;28;66130;-43
2023/06/14 11:44:50;;;;;;;6.85;6.13;;;;;;;33.38;61.74;100617.66;5055278;28;70296;-46
2023/06/14 11:47:35;;;;;;;6.80;6.30;;;;;;;33.81;62.56;100689.72;5060131;28;66221;-44
2023/06/14 11:50:09;;;;;;;8.30;6.20;;;;;;;33.57;62.50;100656.38;5050802;28;70290;-44
2023/06/14 11:52:41;;;;;;;7.47;6.90;;;;;;;33.75;62.37;100687.97;5055186;28;66266;-46
2023/06/14 11:55:12;;;;;;;6.93;6.43;;;;;;;33.78;62.79;100692.09;5034806;28;69191;-43